createdAt,value
2019-05-11T00:02:23.450Z,2.17
2019-05-11T00:04:53.922Z,1.50
2019-05-11T00:07:24.407Z,1.10
2019-05-11T00:09:58.079Z,0.90
2019-05-11T00:12:27.233Z,1.13
2019-05-11T00:14:57.656Z,1.00
2019-05-11T00:17:28.149Z,0.90
2019-05-11T00:19:58.832Z,1.03
2019-05-11T00:22:29.403Z,1.10
2019-05-11T00:24:59.824Z,1.20
2019-05-11T00:27:30.269Z,1.10
2019-05-11T00:30:00.740Z,0.90
2019-05-11T00:32:31.415Z,1.30
2019-05-11T00:35:02.326Z,1.30
2019-05-11T00:37:32.854Z,1.43
2019-05-11T00:40:13.819Z,1.27
2019-05-11T00:42:35.488Z,1.50
2019-05-11T00:45:06.557Z,1.40
2019-05-11T00:47:37.239Z,1.60
2019-05-11T00:50:08.006Z,1.43
2019-05-11T00:52:38.551Z,1.43
2019-05-11T00:55:09.012Z,2.00
2019-05-11T00:57:39.375Z,2.10
2019-05-11T01:00:10.438Z,2.10
2019-05-11T01:02:40.980Z,1.80
2019-05-11T01:05:11.680Z,1.60
2019-05-11T01:07:42.420Z,1.23
2019-05-11T01:10:25.272Z,1.40
2019-05-11T01:12:45.437Z,1.53
2019-05-11T01:15:15.919Z,1.20
2019-05-11T01:17:46.380Z,1.50
2019-05-11T01:20:18.638Z,1.47
2019-05-11T01:22:49.354Z,1.40
2019-05-11T01:25:19.881Z,1.43
2019-05-11T01:27:50.435Z,1.30
2019-05-11T01:30:21.215Z,1.30
2019-05-11T01:32:51.709Z,1.20
2019-05-11T01:35:22.477Z,1.00
2019-05-11T01:37:52.864Z,1.30
2019-05-11T01:40:23.477Z,1.03
2019-05-11T01:42:53.862Z,1.20
2019-05-11T01:45:24.376Z,1.67
2019-05-11T01:47:54.732Z,1.40
2019-05-11T01:50:25.152Z,1.40
2019-05-11T01:52:55.642Z,1.40
2019-05-11T01:55:26.186Z,1.50
2019-05-11T01:57:56.921Z,1.23
2019-05-11T02:00:27.369Z,1.53
2019-05-11T02:02:57.867Z,1.20
2019-05-11T02:05:29.077Z,1.10
2019-05-11T02:08:01.357Z,1.30
2019-05-11T02:10:32.323Z,1.10
2019-05-11T02:13:02.821Z,1.20
2019-05-11T02:15:33.422Z,0.73
2019-05-11T02:18:03.813Z,1.10
2019-05-11T02:20:34.579Z,1.10
2019-05-11T02:23:05.008Z,1.40
2019-05-11T02:25:35.514Z,1.37
2019-05-11T02:28:05.987Z,1.30
2019-05-11T02:30:36.493Z,1.50
2019-05-11T02:33:07.218Z,1.30
2019-05-11T02:35:37.797Z,1.50
2019-05-11T02:38:08.258Z,1.53
2019-05-11T02:40:38.745Z,1.50
2019-05-11T02:43:09.369Z,1.37
2019-05-11T02:45:41.871Z,1.57
2019-05-11T02:48:12.751Z,2.00
2019-05-11T02:50:43.769Z,1.87
2019-05-11T02:53:14.337Z,1.33
2019-05-11T02:55:47.761Z,1.90
2019-05-11T02:58:18.332Z,1.50
2019-05-11T03:00:49.823Z,1.60
2019-05-11T03:03:20.317Z,1.67
2019-05-11T03:05:50.873Z,2.10
2019-05-11T03:08:21.327Z,1.63
2019-05-11T03:10:51.998Z,1.90
2019-05-11T03:13:22.513Z,1.60
2019-05-11T03:15:53.039Z,1.20
2019-05-11T03:18:23.533Z,1.77
2019-05-11T03:20:54.160Z,1.53
2019-05-11T03:23:24.634Z,1.80
2019-05-11T03:25:55.096Z,1.30
2019-05-11T03:28:25.640Z,2.00
2019-05-11T03:30:56.208Z,2.00
2019-05-11T03:33:26.666Z,1.70
2019-05-11T03:35:57.234Z,1.30
2019-05-11T03:38:27.722Z,1.83
2019-05-11T03:40:58.344Z,1.57
2019-05-11T03:43:28.735Z,1.80
2019-05-11T03:45:59.244Z,1.90
2019-05-11T03:48:29.741Z,1.83
2019-05-11T03:51:00.259Z,1.70
2019-05-11T03:53:30.788Z,1.63
2019-05-11T03:56:01.383Z,2.03
2019-05-11T03:58:31.835Z,2.08
2019-05-11T04:01:02.366Z,1.83
2019-05-11T04:03:33.850Z,1.70
2019-05-11T04:06:04.431Z,1.80
2019-05-11T04:08:34.956Z,1.83
2019-05-11T04:11:05.378Z,2.30
2019-05-11T04:13:36.088Z,1.80
2019-05-11T04:16:06.626Z,1.90
2019-05-11T04:18:37.142Z,1.90
2019-05-11T04:21:07.585Z,1.70
2019-05-11T04:23:38.031Z,1.90
2019-05-11T04:26:08.461Z,1.87
2019-05-11T04:28:38.985Z,2.00
2019-05-11T04:31:09.372Z,1.87
2019-05-11T04:33:40.153Z,1.63
2019-05-11T04:36:10.761Z,1.73
2019-05-11T04:38:41.292Z,1.80
2019-05-11T04:41:11.818Z,1.77
2019-05-11T04:43:42.331Z,2.30
2019-05-11T04:46:12.988Z,2.07
2019-05-11T04:48:43.413Z,2.30
2019-05-11T04:51:13.875Z,2.40
2019-05-11T04:53:44.338Z,2.40
2019-05-11T04:56:14.841Z,1.60
2019-05-11T04:58:45.297Z,2.00
2019-05-11T05:01:16.045Z,2.00
2019-05-11T05:03:47.583Z,2.13
2019-05-11T05:06:24.503Z,1.90
2019-05-11T05:08:51.607Z,2.60
2019-05-11T05:11:22.068Z,2.27
2019-05-11T05:13:53.670Z,2.30
2019-05-11T05:16:24.293Z,2.37
2019-05-11T05:18:54.670Z,2.60
2019-05-11T05:21:25.070Z,2.20
2019-05-11T05:23:56.668Z,2.30
2019-05-11T05:26:27.163Z,2.80
2019-05-11T05:28:57.628Z,2.80
2019-05-11T05:31:28.162Z,2.50
2019-05-11T05:34:01.367Z,2.60
2019-05-11T05:36:30.696Z,2.77
2019-05-11T05:39:01.061Z,2.37
2019-05-11T05:41:31.636Z,1.93
2019-05-11T05:44:02.072Z,3.12
2019-05-11T05:46:32.533Z,2.60
2019-05-11T05:49:02.973Z,2.50
2019-05-11T05:51:33.446Z,2.70
2019-05-11T05:54:03.861Z,2.53
2019-05-11T05:56:34.289Z,2.77
2019-05-11T05:59:04.829Z,2.50
2019-05-11T06:01:35.536Z,3.40
2019-05-11T06:04:05.986Z,3.07
2019-05-11T06:06:36.447Z,2.90
2019-05-11T06:09:07.929Z,2.60
2019-05-11T06:11:38.387Z,2.40
2019-05-11T06:14:10.099Z,2.90
2019-05-11T06:16:40.560Z,3.40
2019-05-11T06:19:11.180Z,2.63
2019-05-11T06:21:42.687Z,3.03
2019-05-11T06:24:13.216Z,2.80
2019-05-11T06:26:43.673Z,2.53
2019-05-11T06:29:14.218Z,2.77
2019-05-11T06:31:44.701Z,2.40
2019-05-11T06:34:15.396Z,2.30
2019-05-11T06:36:45.848Z,2.93
2019-05-11T06:39:16.317Z,3.10
2019-05-11T06:41:46.925Z,2.53
2019-05-11T06:44:17.352Z,2.97
2019-05-11T06:46:47.827Z,3.10
2019-05-11T06:49:18.413Z,2.97
2019-05-11T06:51:48.885Z,3.20
2019-05-11T06:54:19.499Z,2.00
2019-05-11T06:56:49.983Z,2.40
2019-05-11T06:59:20.498Z,2.80
2019-05-11T07:01:51.110Z,2.50
2019-05-11T07:04:21.620Z,2.50
2019-05-11T07:06:52.371Z,2.80
2019-05-11T07:09:22.767Z,2.73
2019-05-11T07:11:53.314Z,2.60
2019-05-11T07:14:23.747Z,3.30
2019-05-11T07:16:55.279Z,2.37
2019-05-11T07:19:25.725Z,2.80
2019-05-11T07:21:56.227Z,2.77
2019-05-11T07:24:26.736Z,2.60
2019-05-11T07:26:57.254Z,2.47
2019-05-11T07:29:27.809Z,2.40
2019-05-11T07:32:05.582Z,2.45
2019-05-11T07:34:30.500Z,2.70
2019-05-11T07:37:00.876Z,2.70
2019-05-11T07:39:31.396Z,2.10
2019-05-11T07:42:01.908Z,2.30
2019-05-11T07:44:38.378Z,2.20
2019-05-11T07:47:04.621Z,1.87
2019-05-11T07:49:35.102Z,1.77
2019-05-11T07:52:07.695Z,1.90
2019-05-11T07:54:38.931Z,1.60
2019-05-11T07:57:09.460Z,1.50
2019-05-11T07:59:40.019Z,1.60
2019-05-11T08:02:10.614Z,2.00
2019-05-11T08:04:41.034Z,1.90
2019-05-11T08:07:11.502Z,1.80
2019-05-11T08:09:41.923Z,1.67
2019-05-11T08:12:12.723Z,1.70
2019-05-11T08:14:56.443Z,1.63
2019-05-11T08:17:18.507Z,2.00
2019-05-11T08:19:48.282Z,1.97
2019-05-11T08:22:22.734Z,1.80
2019-05-11T08:24:51.191Z,2.20
2019-05-11T08:27:22.688Z,2.57
2019-05-11T08:29:53.173Z,2.13
2019-05-11T08:32:23.836Z,2.00
2019-05-11T08:34:54.265Z,2.07
2019-05-11T08:37:24.883Z,1.93
2019-05-11T08:39:55.370Z,2.27
2019-05-11T08:42:28.660Z,2.40
2019-05-11T08:45:15.287Z,2.00
2019-05-11T08:47:30.941Z,2.00
2019-05-11T08:50:01.461Z,2.03
2019-05-11T08:52:32.002Z,1.77
2019-05-11T08:55:02.506Z,2.13
2019-05-11T08:57:33.246Z,2.50
2019-05-11T09:00:03.924Z,2.40
2019-05-11T09:02:34.458Z,2.20
2019-05-11T09:05:05.194Z,2.02
2019-05-11T09:07:38.213Z,2.02
2019-05-11T09:10:08.493Z,1.70
2019-05-11T09:12:39.082Z,2.00
2019-05-11T09:15:09.985Z,1.90
2019-05-11T09:17:40.437Z,1.72
2019-05-11T09:20:12.202Z,1.90
2019-05-11T09:22:42.882Z,1.60
2019-05-11T09:25:14.447Z,1.90
2019-05-11T09:27:45.011Z,1.80
2019-05-11T09:30:18.204Z,1.80
2019-05-11T09:32:48.168Z,1.40
2019-05-11T09:35:19.094Z,1.37
2019-05-11T09:37:50.055Z,2.08
2019-05-11T09:40:20.637Z,1.40
2019-05-11T09:42:51.480Z,1.60
2019-05-11T09:45:21.862Z,1.50
2019-05-11T09:47:52.336Z,1.30
2019-05-11T09:50:22.729Z,1.70
2019-05-11T09:52:53.240Z,1.60
2019-05-11T09:55:23.710Z,1.87
2019-05-11T09:57:54.264Z,2.10
2019-05-11T10:00:25.228Z,1.70
2019-05-11T10:02:57.701Z,1.50
2019-05-11T10:05:28.640Z,1.72
2019-05-11T10:07:59.394Z,1.40
2019-05-11T10:10:29.984Z,1.20
2019-05-11T10:13:00.442Z,1.17
2019-05-11T10:15:30.935Z,1.12
2019-05-11T10:18:01.528Z,1.22
2019-05-11T10:20:32.041Z,1.27
2019-05-11T10:23:02.629Z,1.25
2019-05-11T10:25:33.133Z,1.02
2019-05-11T10:28:03.685Z,1.45
2019-05-11T10:30:34.244Z,1.30
2019-05-11T10:33:05.431Z,1.00
2019-05-11T10:35:37.870Z,1.10
2019-05-11T10:38:09.080Z,1.02
2019-05-11T10:40:40.106Z,1.10
2019-05-11T10:43:10.954Z,1.00
2019-05-11T10:45:41.531Z,1.20
2019-05-11T10:48:12.022Z,0.80
2019-05-11T10:50:42.429Z,1.07
2019-05-11T10:53:12.910Z,0.70
2019-05-11T10:55:43.446Z,0.88
2019-05-11T10:58:13.985Z,0.80
2019-05-11T11:00:44.379Z,0.70
2019-05-11T11:03:15.043Z,0.55
2019-05-11T11:05:45.427Z,0.60
2019-05-11T11:08:18.377Z,0.70
2019-05-11T11:10:48.520Z,1.40
2019-05-11T11:13:19.235Z,0.85
2019-05-11T11:15:49.603Z,0.80
2019-05-11T11:18:20.189Z,1.12
2019-05-11T11:20:50.690Z,1.80
2019-05-11T11:23:21.248Z,1.82
2019-05-11T11:25:51.679Z,1.32
2019-05-11T11:28:22.341Z,1.10
2019-05-11T11:30:52.755Z,0.82
2019-05-11T11:33:23.245Z,0.95
2019-05-11T11:35:53.678Z,1.00
2019-05-11T11:38:24.213Z,0.70
2019-05-11T11:40:54.710Z,0.80
2019-05-11T11:43:25.164Z,0.95
2019-05-11T11:45:57.815Z,1.10
2019-05-11T11:48:28.104Z,1.10
2019-05-11T11:50:58.619Z,1.25
2019-05-11T11:53:29.081Z,1.00
2019-05-11T11:55:59.596Z,1.10
2019-05-11T11:58:30.067Z,1.10
2019-05-11T12:01:00.750Z,1.10
2019-05-11T12:03:31.197Z,1.00
2019-05-11T12:06:01.874Z,0.80
2019-05-11T12:08:32.466Z,0.72
2019-05-11T12:11:03.015Z,0.80
2019-05-11T12:13:33.539Z,1.00
2019-05-11T12:16:03.966Z,0.70
2019-05-11T12:18:34.455Z,0.88
2019-05-11T12:21:05.250Z,1.00
2019-05-11T12:23:37.484Z,1.10
2019-05-11T12:26:08.602Z,0.90
2019-05-11T12:28:39.193Z,0.72
2019-05-11T12:31:10.583Z,0.90
2019-05-11T12:33:41.074Z,1.07
2019-05-11T12:36:11.515Z,0.82
2019-05-11T12:38:41.994Z,0.80
2019-05-11T12:41:12.429Z,0.90
2019-05-11T12:43:43.025Z,1.10
2019-05-11T12:46:13.479Z,1.30
2019-05-11T12:48:44.043Z,1.27
2019-05-11T12:51:14.547Z,1.47
2019-05-11T12:53:44.934Z,1.70
2019-05-11T12:56:15.464Z,3.10
2019-05-11T12:58:45.939Z,2.80
2019-05-11T13:01:18.761Z,2.65
2019-05-11T13:03:49.344Z,2.17
2019-05-11T13:06:20.003Z,2.40
2019-05-11T13:08:50.474Z,2.10
2019-05-11T13:11:20.867Z,2.02
2019-05-11T13:13:51.409Z,2.20
2019-05-11T13:16:21.900Z,2.25
2019-05-11T13:18:52.313Z,2.45
2019-05-11T13:21:22.932Z,1.67
2019-05-11T13:23:53.471Z,1.65
2019-05-11T13:26:23.873Z,1.80
2019-05-11T13:28:55.450Z,1.50
2019-05-11T13:31:27.702Z,1.47
2019-05-11T13:33:58.646Z,1.12
2019-05-11T13:36:30.726Z,1.00
2019-05-11T13:39:01.254Z,1.32
2019-05-11T13:41:32.718Z,1.35
2019-05-11T13:44:04.633Z,1.20
2019-05-11T13:46:35.203Z,1.05
2019-05-11T13:49:05.624Z,1.10
2019-05-11T13:51:38.580Z,0.93
2019-05-11T13:54:08.531Z,0.95
2019-05-11T13:56:39.015Z,1.00
2019-05-11T13:59:10.772Z,0.90
2019-05-11T14:01:41.539Z,0.90
2019-05-11T14:04:11.983Z,0.80
2019-05-11T14:06:42.563Z,1.10
2019-05-11T14:09:12.960Z,0.50
2019-05-11T14:11:45.021Z,0.75
2019-05-11T14:14:15.619Z,0.90
2019-05-11T14:16:48.323Z,0.55
2019-05-11T14:19:18.639Z,0.80
2019-05-11T14:21:49.181Z,0.80
2019-05-11T14:24:19.716Z,0.90
2019-05-11T14:26:50.293Z,0.90
2019-05-11T14:29:20.783Z,0.70
2019-05-11T14:31:51.223Z,1.00
2019-05-11T14:34:21.827Z,0.60
2019-05-11T14:36:52.351Z,0.80
2019-05-11T14:39:22.854Z,0.90
2019-05-11T14:41:53.334Z,0.70
2019-05-11T14:44:23.849Z,0.70
2019-05-11T14:46:54.321Z,0.90
2019-05-11T14:49:24.810Z,0.65
2019-05-11T14:51:57.590Z,0.60
2019-05-11T14:54:28.866Z,0.80
2019-05-11T14:56:59.615Z,0.78
2019-05-11T14:59:30.026Z,0.70
2019-05-11T15:02:02.065Z,0.65
2019-05-11T15:04:32.735Z,0.80
2019-05-11T15:07:03.151Z,0.80
2019-05-11T15:09:33.642Z,0.75
2019-05-11T15:12:04.094Z,0.80
2019-05-11T15:14:34.557Z,0.90
2019-05-11T15:17:04.969Z,0.80
2019-05-11T15:19:35.757Z,0.70
2019-05-11T15:22:08.532Z,0.70
2019-05-11T15:24:38.524Z,0.80
2019-05-11T15:27:09.283Z,0.60
2019-05-11T15:29:40.037Z,0.53
2019-05-11T15:32:17.928Z,0.70
2019-05-11T15:34:48.837Z,0.70
2019-05-11T15:37:19.307Z,0.88
2019-05-11T15:39:49.900Z,0.80
2019-05-11T15:42:21.526Z,0.70
2019-05-11T15:44:51.962Z,0.72
2019-05-11T15:47:23.917Z,0.80
2019-05-11T15:49:54.543Z,1.00
2019-05-11T15:52:25.133Z,1.05
2019-05-11T15:54:55.614Z,0.95
2019-05-11T15:57:28.058Z,0.70
2019-05-11T15:59:58.444Z,0.70
2019-05-11T16:02:29.226Z,0.80
2019-05-11T16:04:59.651Z,0.70
2019-05-11T16:07:30.162Z,1.02
2019-05-11T16:10:00.650Z,0.78
2019-05-11T16:12:31.256Z,0.80
2019-05-11T16:15:01.708Z,0.85
2019-05-11T16:17:32.981Z,0.80
2019-05-11T16:20:03.448Z,0.90
2019-05-11T16:22:33.843Z,1.12
2019-05-11T16:25:04.424Z,0.80
2019-05-11T16:27:34.925Z,1.10
2019-05-11T16:30:05.895Z,1.00
2019-05-11T16:32:38.658Z,1.40
2019-05-11T16:35:09.168Z,1.10
2019-05-11T16:37:39.790Z,0.95
2019-05-11T16:40:11.104Z,1.17
2019-05-11T16:42:41.632Z,1.00
2019-05-11T16:45:12.313Z,0.90
2019-05-11T16:47:42.913Z,1.00
2019-05-11T16:50:13.429Z,0.80
2019-05-11T16:52:43.879Z,0.80
2019-05-11T16:55:14.416Z,0.88
2019-05-11T16:57:48.308Z,0.80
2019-05-11T17:00:19.379Z,0.75
2019-05-11T17:02:49.808Z,0.80
2019-05-11T17:05:26.688Z,0.90
2019-05-11T17:07:52.536Z,0.62
2019-05-11T17:10:22.959Z,0.80
2019-05-11T17:12:53.555Z,0.80
2019-05-11T17:15:24.048Z,0.80
2019-05-11T17:17:54.618Z,1.10
2019-05-11T17:20:25.042Z,1.02
2019-05-11T17:22:55.514Z,0.80
2019-05-11T17:25:28.641Z,0.90
2019-05-11T17:27:58.758Z,0.90
2019-05-11T17:30:29.510Z,0.70
2019-05-11T17:32:59.962Z,0.98
2019-05-11T17:35:30.517Z,0.70
2019-05-11T17:38:01.053Z,0.80
2019-05-11T17:40:31.636Z,0.80
2019-05-11T17:43:02.083Z,0.98
2019-05-11T17:45:32.633Z,0.78
2019-05-11T17:48:03.240Z,1.00
2019-05-11T17:50:33.718Z,1.12
2019-05-11T17:53:04.185Z,0.90
2019-05-11T17:55:34.771Z,1.12
2019-05-11T17:58:05.260Z,1.10
2019-05-11T18:00:35.770Z,1.15
2019-05-11T18:03:10.220Z,1.47
2019-05-11T18:05:38.767Z,1.40
2019-05-11T18:08:09.529Z,1.22
2019-05-11T18:10:39.931Z,1.60
2019-05-11T18:13:10.341Z,1.25
2019-05-11T18:15:41.933Z,1.50
2019-05-11T18:18:12.429Z,1.65
2019-05-11T18:20:42.980Z,1.07
2019-05-11T18:23:13.479Z,0.88
2019-05-11T18:25:45.141Z,1.27
2019-05-11T18:28:17.992Z,1.23
2019-05-11T18:30:48.041Z,1.12
2019-05-11T18:33:18.977Z,1.23
2019-05-11T18:35:49.446Z,0.90
2019-05-11T18:38:20.589Z,1.10
2019-05-11T18:40:51.098Z,0.90
2019-05-11T18:43:21.614Z,0.80
2019-05-11T18:45:52.178Z,0.50
2019-05-11T18:48:22.667Z,0.57
2019-05-11T18:50:56.131Z,0.60
2019-05-11T18:53:25.455Z,0.60
2019-05-11T18:55:59.081Z,2.03
2019-05-11T18:58:29.394Z,3.43
2019-05-11T19:00:59.809Z,1.40
2019-05-11T19:03:30.188Z,0.60
2019-05-11T19:06:00.662Z,0.70
2019-05-11T19:08:31.310Z,0.57
2019-05-11T19:11:01.692Z,0.60
2019-05-11T19:13:32.083Z,0.50
2019-05-11T19:16:02.614Z,0.57
2019-05-11T19:18:33.003Z,0.40
2019-05-11T19:21:03.522Z,0.60
2019-05-11T19:23:34.082Z,0.50
2019-05-11T19:26:04.505Z,0.63
2019-05-11T19:28:35.016Z,0.60
2019-05-11T19:31:08.266Z,0.60
2019-05-11T19:33:38.190Z,0.70
2019-05-11T19:36:08.851Z,0.63
2019-05-11T19:38:39.355Z,0.63
2019-05-11T19:41:09.937Z,0.60
2019-05-11T19:43:40.410Z,0.50
2019-05-11T19:46:11.064Z,0.50
2019-05-11T19:48:41.510Z,0.70
2019-05-11T19:51:12.189Z,0.77
2019-05-11T19:53:42.707Z,0.70
2019-05-11T19:56:13.213Z,0.60
2019-05-11T19:58:43.667Z,1.00
2019-05-11T20:01:14.061Z,0.60
2019-05-11T20:03:45.570Z,0.80
2019-05-11T20:06:16.129Z,0.80
2019-05-11T20:08:46.667Z,0.80
2019-05-11T20:11:18.685Z,0.43
2019-05-11T20:13:50.398Z,0.63
2019-05-11T20:16:20.994Z,0.70
2019-05-11T20:18:51.427Z,0.80
2019-05-11T20:21:23.233Z,0.83
2019-05-11T20:23:53.738Z,0.83
2019-05-11T20:26:24.251Z,0.53
2019-05-11T20:28:54.636Z,0.70
2019-05-11T20:31:25.142Z,0.57
2019-05-11T20:33:55.712Z,0.47
2019-05-11T20:36:26.107Z,1.07
2019-05-11T20:38:56.659Z,0.57
2019-05-11T20:41:27.976Z,0.63
2019-05-11T20:43:58.703Z,0.50
2019-05-11T20:46:29.236Z,0.80
2019-05-11T20:48:59.710Z,0.60
2019-05-11T20:51:36.694Z,0.67
2019-05-11T20:54:02.578Z,0.70
2019-05-11T20:56:34.072Z,0.63
2019-05-11T20:59:04.586Z,0.50
2019-05-11T21:01:35.057Z,0.60
2019-05-11T21:04:05.638Z,0.60
2019-05-11T21:06:36.130Z,0.70
2019-05-11T21:09:07.917Z,0.80
2019-05-11T21:11:38.542Z,0.70
2019-05-11T21:14:09.030Z,0.50
2019-05-11T21:16:39.564Z,0.70
2019-05-11T21:19:10.173Z,0.63
2019-05-11T21:21:50.007Z,0.70
2019-05-11T21:24:12.967Z,0.73
2019-05-11T21:26:43.449Z,0.60
2019-05-11T21:29:13.930Z,0.50
2019-05-11T21:31:44.513Z,0.63
2019-05-11T21:34:18.153Z,0.70
2019-05-11T21:36:48.631Z,0.50
2019-05-11T21:39:19.160Z,0.70
2019-05-11T21:41:49.680Z,0.70
2019-05-11T21:44:20.101Z,0.70
2019-05-11T21:46:50.606Z,1.00
2019-05-11T21:49:20.970Z,0.77
2019-05-11T21:52:03.572Z,0.60
2019-05-11T21:54:23.929Z,0.70
2019-05-11T21:56:54.389Z,0.50
2019-05-11T21:59:27.509Z,0.80
2019-05-11T22:01:57.404Z,0.50
2019-05-11T22:04:28.619Z,0.60
2019-05-11T22:06:59.144Z,0.63
2019-05-11T22:09:29.669Z,0.50
2019-05-11T22:12:00.114Z,0.60
2019-05-11T22:14:30.550Z,0.50
2019-05-11T22:17:02.580Z,0.60
2019-05-11T22:19:33.372Z,0.40
2019-05-11T22:22:18.163Z,0.60
2019-05-11T22:24:36.203Z,0.67
2019-05-11T22:27:08.004Z,0.70
2019-05-11T22:29:38.794Z,0.77
2019-05-11T22:32:09.486Z,0.60
2019-05-11T22:34:40.057Z,0.70
2019-05-11T22:37:10.619Z,0.60
2019-05-11T22:39:42.205Z,0.47
2019-05-11T22:42:12.698Z,0.30
2019-05-11T22:44:43.365Z,0.60
2019-05-11T22:47:13.822Z,0.60
2019-05-11T22:49:44.298Z,0.50
2019-05-11T22:52:14.915Z,0.50
2019-05-11T22:54:45.440Z,0.40
2019-05-11T22:57:15.952Z,0.53
2019-05-11T22:59:46.456Z,0.47
2019-05-11T23:02:19.037Z,0.50
2019-05-11T23:04:49.000Z,0.60
2019-05-11T23:07:19.500Z,0.60
2019-05-11T23:09:49.920Z,0.50
2019-05-11T23:12:20.558Z,0.47
2019-05-11T23:15:08.806Z,0.30
2019-05-11T23:17:39.208Z,0.60
2019-05-11T23:20:11.085Z,0.50
2019-05-11T23:22:56.933Z,0.50
2019-05-11T23:25:20.799Z,0.50
2019-05-11T23:27:51.214Z,0.70
2019-05-11T23:30:21.812Z,0.47
2019-05-11T23:32:52.221Z,0.60
2019-05-11T23:35:22.657Z,0.60
2019-05-11T23:37:53.082Z,0.40
2019-05-11T23:40:23.539Z,0.30
2019-05-11T23:42:54.184Z,0.50
2019-05-11T23:45:24.613Z,0.50
2019-05-11T23:47:55.165Z,0.40
2019-05-11T23:50:27.880Z,0.50
2019-05-11T23:53:06.132Z,0.50
2019-05-11T23:55:29.810Z,0.30
2019-05-11T23:58:00.204Z,0.40
